createdAt,value
2023-05-13T00:01:53.820Z,8.30
2023-05-13T00:04:26.980Z,8.29
2023-05-13T00:07:00.259Z,8.13
2023-05-13T00:09:33.354Z,8.15
2023-05-13T00:12:08.608Z,8.27
2023-05-13T00:14:41.811Z,8.43
2023-05-13T00:17:19.344Z,8.35
2023-05-13T00:19:52.568Z,8.10
2023-05-13T00:22:25.663Z,8.26
2023-05-13T00:24:58.889Z,7.93
2023-05-13T00:27:33.789Z,8.05
2023-05-13T00:30:08.460Z,8.08
2023-05-13T00:32:42.181Z,8.17
2023-05-13T00:35:15.527Z,8.01
2023-05-13T00:37:48.787Z,8.04
2023-05-13T00:40:26.317Z,7.91
2023-05-13T00:43:01.196Z,7.91
2023-05-13T00:45:34.550Z,7.83
2023-05-13T00:48:08.839Z,7.88
2023-05-13T00:50:44.872Z,7.91
2023-05-13T00:53:22.320Z,7.97
2023-05-13T00:55:56.103Z,7.82
2023-05-13T00:58:31.121Z,7.83
2023-05-13T01:01:13.265Z,7.81
2023-05-13T01:03:54.637Z,7.67
2023-05-13T01:06:35.193Z,7.31
2023-05-13T01:09:17.371Z,7.64
2023-05-13T01:11:53.928Z,7.67
2023-05-13T01:14:34.116Z,7.53
2023-05-13T01:17:13.037Z,7.67
2023-05-13T01:19:50.738Z,7.64
2023-05-13T01:22:25.552Z,7.52
2023-05-13T01:24:58.847Z,7.64
2023-05-13T01:27:32.464Z,7.34
2023-05-13T01:30:10.650Z,6.96
2023-05-13T01:32:46.517Z,7.36
2023-05-13T01:35:22.340Z,7.30
2023-05-13T01:37:58.850Z,7.53
2023-05-13T01:40:34.717Z,7.41
2023-05-13T01:43:11.532Z,7.27
2023-05-13T01:45:44.755Z,7.31
2023-05-13T01:48:19.894Z,7.15
2023-05-13T01:50:55.166Z,6.92
2023-05-13T01:53:31.418Z,7.30
2023-05-13T01:56:04.991Z,7.20
2023-05-13T01:58:38.377Z,7.12
2023-05-13T02:01:11.756Z,7.04
2023-05-13T02:03:45.260Z,6.96
2023-05-13T02:06:18.815Z,7.17
2023-05-13T02:08:53.588Z,7.21
2023-05-13T02:11:26.884Z,7.15
2023-05-13T02:14:03.683Z,6.96
2023-05-13T02:16:36.832Z,6.96
2023-05-13T02:19:12.872Z,6.98
2023-05-13T02:21:46.840Z,6.87
2023-05-13T02:24:21.398Z,6.95
2023-05-13T02:26:55.822Z,7.12
2023-05-13T02:29:29.470Z,6.81
2023-05-13T02:32:02.688Z,6.69
2023-05-13T02:34:36.182Z,6.92
2023-05-13T02:37:10.652Z,6.90
2023-05-13T02:39:53.544Z,6.88
2023-05-13T02:42:27.355Z,6.84
2023-05-13T02:45:01.668Z,6.75
2023-05-13T02:47:39.341Z,6.57
2023-05-13T02:50:13.760Z,6.54
2023-05-13T02:52:48.026Z,6.65
2023-05-13T02:55:23.287Z,6.76
2023-05-13T02:57:57.189Z,6.53
2023-05-13T03:00:31.786Z,6.50
2023-05-13T03:03:05.708Z,6.69
2023-05-13T03:05:39.300Z,6.47
2023-05-13T03:08:12.825Z,6.50
2023-05-13T03:10:47.470Z,6.63
2023-05-13T03:13:20.919Z,6.65
2023-05-13T03:15:54.145Z,6.52
2023-05-13T03:18:29.026Z,6.49
2023-05-13T03:21:02.656Z,6.35
2023-05-13T03:23:36.115Z,6.54
2023-05-13T03:26:10.855Z,6.05
2023-05-13T03:28:44.146Z,6.12
2023-05-13T03:31:17.736Z,6.25
2023-05-13T03:33:51.554Z,6.10
2023-05-13T03:36:25.124Z,6.22
2023-05-13T03:38:58.608Z,6.50
2023-05-13T03:41:33.220Z,6.32
2023-05-13T03:44:06.708Z,6.27
2023-05-13T03:46:40.617Z,6.17
2023-05-13T03:49:13.997Z,6.33
2023-05-13T03:51:47.507Z,6.24
2023-05-13T03:54:21.025Z,5.89
2023-05-13T03:56:57.466Z,5.97
2023-05-13T03:59:30.950Z,5.86
2023-05-13T04:02:04.236Z,6.23
2023-05-13T04:04:37.500Z,6.30
2023-05-13T04:07:15.641Z,6.21
2023-05-13T04:09:48.836Z,6.34
2023-05-13T04:12:27.562Z,6.35
2023-05-13T04:15:01.825Z,6.47
2023-05-13T04:17:35.546Z,6.53
2023-05-13T04:20:11.406Z,6.44
2023-05-13T04:22:46.984Z,6.46
2023-05-13T04:25:21.436Z,6.55
2023-05-13T04:27:56.232Z,6.56
2023-05-13T04:30:37.512Z,6.68
2023-05-13T04:33:13.986Z,6.45
2023-05-13T04:35:50.418Z,6.43
2023-05-13T04:38:26.406Z,6.60
2023-05-13T04:41:00.379Z,6.73
2023-05-13T04:43:48.912Z,6.47
2023-05-13T04:46:22.726Z,6.77
2023-05-13T04:48:57.931Z,6.62
2023-05-13T04:51:32.703Z,6.86
2023-05-13T04:54:06.686Z,6.64
2023-05-13T04:56:40.076Z,6.76
2023-05-13T04:59:15.695Z,7.17
2023-05-13T05:01:49.408Z,7.30
2023-05-13T05:04:23.277Z,6.99
2023-05-13T05:06:56.607Z,7.16
2023-05-13T05:09:30.129Z,7.15
2023-05-13T05:12:03.665Z,7.44
2023-05-13T05:14:40.314Z,7.29
2023-05-13T05:17:13.576Z,7.46
2023-05-13T05:19:46.768Z,7.26
2023-05-13T05:22:20.871Z,7.69
2023-05-13T05:24:53.915Z,7.41
2023-05-13T05:27:26.788Z,7.82
2023-05-13T05:30:01.403Z,7.72
2023-05-13T05:32:37.560Z,7.48
2023-05-13T05:35:11.741Z,7.56
2023-05-13T05:37:44.683Z,7.89
2023-05-13T05:40:17.773Z,7.93
2023-05-13T05:42:52.836Z,8.17
2023-05-13T05:45:28.066Z,8.53
2023-05-13T05:48:01.269Z,8.29
2023-05-13T05:50:35.016Z,8.31
2023-05-13T05:58:05.830Z,8.74
2023-05-13T06:00:42.540Z,8.75
2023-05-13T06:03:15.959Z,8.61
2023-05-13T06:05:49.157Z,8.66
2023-05-13T06:08:22.732Z,8.83
2023-05-13T06:10:58.242Z,9.03
2023-05-13T06:13:31.955Z,9.12
2023-05-13T06:16:07.088Z,9.37
2023-05-13T06:18:40.352Z,9.22
2023-05-13T06:21:32.476Z,9.35
2023-05-13T06:25:45.533Z,9.38
2023-05-13T06:33:12.746Z,10.60
2023-05-13T06:35:49.413Z,10.62
2023-05-13T06:38:30.370Z,10.71
2023-05-13T06:41:06.346Z,11.15
2023-05-13T06:43:41.929Z,11.23
2023-05-13T06:46:24.081Z,11.34
2023-05-13T06:48:59.067Z,11.54
2023-05-13T06:51:33.451Z,11.82
2023-05-13T06:54:13.778Z,11.74
2023-05-13T06:56:47.235Z,12.05
2023-05-13T06:59:21.768Z,12.24
2023-05-13T07:01:54.926Z,12.35
2023-05-13T07:04:30.529Z,12.65
2023-05-13T07:07:04.215Z,12.92
2023-05-13T07:09:37.660Z,12.72
2023-05-13T07:12:11.307Z,12.99
2023-05-13T07:14:45.382Z,13.29
2023-05-13T07:17:18.726Z,13.45
2023-05-13T07:19:53.259Z,13.58
2023-05-13T07:22:26.531Z,13.45
2023-05-13T07:24:59.926Z,13.70
2023-05-13T07:27:33.186Z,13.74
2023-05-13T07:30:08.775Z,13.79
2023-05-13T07:32:42.050Z,13.84
2023-05-13T07:35:17.123Z,13.86
2023-05-13T07:37:49.995Z,13.94
2023-05-13T07:40:22.986Z,14.31
2023-05-13T07:42:55.981Z,14.08
2023-05-13T07:45:29.799Z,14.20
2023-05-13T07:48:03.244Z,14.39
2023-05-13T07:50:37.774Z,14.30
2023-05-13T07:53:10.955Z,14.36
2023-05-13T07:55:43.826Z,14.35
2023-05-13T07:58:18.664Z,14.49
2023-05-13T08:00:51.492Z,14.54
2023-05-13T08:03:24.501Z,14.61
2023-05-13T08:05:59.025Z,14.64
2023-05-13T08:08:33.302Z,14.75
2023-05-13T08:11:06.744Z,14.73
2023-05-13T08:13:39.525Z,14.90
2023-05-13T08:16:12.414Z,15.13
2023-05-13T08:18:45.408Z,15.24
2023-05-13T08:21:19.734Z,15.41
2023-05-13T08:23:52.575Z,15.64
2023-05-13T08:26:25.458Z,15.63
2023-05-13T08:28:58.300Z,15.86
2023-05-13T08:31:32.075Z,16.44
2023-05-13T08:34:04.964Z,16.46
2023-05-13T08:36:39.099Z,16.59
2023-05-13T08:39:11.915Z,16.42
2023-05-13T08:41:46.034Z,16.17
2023-05-13T08:44:20.548Z,16.16
2023-05-13T08:47:03.131Z,16.05
2023-05-13T08:49:36.066Z,16.07
2023-05-13T08:52:10.314Z,16.63
2023-05-13T08:54:44.677Z,16.43
2023-05-13T08:57:17.679Z,16.71
2023-05-13T08:59:51.307Z,16.30
2023-05-13T09:02:24.145Z,17.06
2023-05-13T09:05:01.144Z,17.08
2023-05-13T09:07:35.794Z,17.21
2023-05-13T09:10:10.288Z,17.03
2023-05-13T09:12:44.582Z,17.38
2023-05-13T09:15:19.316Z,18.16
2023-05-13T09:17:56.541Z,18.46
2023-05-13T09:20:29.707Z,18.60
2023-05-13T09:23:05.476Z,18.90
2023-05-13T09:25:39.383Z,18.17
2023-05-13T09:28:15.725Z,17.88
2023-05-13T09:30:55.896Z,18.16
2023-05-13T09:33:32.704Z,17.59
2023-05-13T09:36:06.702Z,17.16
2023-05-13T09:38:40.897Z,17.74
2023-05-13T09:41:13.843Z,18.44
2023-05-13T09:43:46.989Z,18.32
2023-05-13T09:46:19.960Z,18.49
2023-05-13T09:48:57.248Z,18.33
2023-05-13T09:51:31.065Z,19.07
2023-05-13T09:54:06.187Z,19.01
2023-05-13T09:56:38.957Z,18.58
2023-05-13T09:59:11.862Z,18.31
2023-05-13T10:01:46.468Z,19.25
2023-05-13T10:04:19.617Z,19.34
2023-05-13T10:06:53.013Z,19.32
2023-05-13T10:09:28.021Z,18.49
2023-05-13T10:12:00.997Z,18.91
2023-05-13T10:14:34.182Z,18.29
2023-05-13T10:17:07.670Z,17.78
2023-05-13T10:19:41.654Z,18.13
2023-05-13T10:22:16.053Z,18.61
2023-05-13T10:24:50.811Z,18.95
2023-05-13T10:27:28.340Z,19.36
2023-05-13T10:30:05.025Z,18.35
2023-05-13T10:32:40.127Z,19.12
2023-05-13T10:35:14.968Z,19.44
2023-05-13T10:38:04.273Z,18.54
2023-05-13T10:41:09.985Z,18.57
2023-05-13T10:43:42.896Z,17.86
2023-05-13T10:46:15.708Z,18.02
2023-05-13T10:48:49.676Z,18.14
2023-05-13T10:51:25.921Z,18.62
2023-05-13T10:53:59.084Z,18.53
2023-05-13T10:56:33.322Z,18.84
2023-05-13T10:59:07.322Z,18.06
2023-05-13T11:01:43.832Z,18.64
2023-05-13T11:04:18.899Z,18.78
2023-05-13T11:06:51.848Z,17.81
2023-05-13T11:09:31.994Z,17.76
2023-05-13T11:12:07.028Z,18.00
2023-05-13T11:14:44.159Z,17.61
2023-05-13T11:17:20.596Z,18.29
2023-05-13T11:19:53.466Z,18.00
2023-05-13T11:22:26.456Z,18.14
2023-05-13T11:25:08.425Z,18.31
2023-05-13T11:27:44.164Z,17.77
2023-05-13T11:30:23.790Z,18.38
2023-05-13T11:32:58.590Z,18.41
2023-05-13T11:35:33.187Z,17.91
2023-05-13T11:38:06.700Z,17.62
2023-05-13T11:40:39.565Z,18.23
2023-05-13T11:43:21.163Z,18.35
2023-05-13T11:45:54.753Z,18.53
2023-05-13T11:48:27.699Z,19.04
2023-05-13T11:51:00.586Z,18.81
2023-05-13T11:53:33.335Z,18.59
2023-05-13T11:56:10.610Z,19.13
2023-05-13T11:58:44.718Z,18.68
2023-05-13T12:01:17.495Z,19.09
2023-05-13T12:03:50.292Z,19.11
2023-05-13T12:06:23.258Z,19.66
2023-05-13T12:08:56.750Z,19.97
2023-05-13T12:11:29.627Z,19.90
2023-05-13T12:14:03.876Z,19.54
2023-05-13T12:16:37.057Z,20.39
2023-05-13T12:19:10.013Z,20.37
2023-05-13T12:21:42.871Z,20.37
2023-05-13T12:24:19.851Z,21.07
2023-05-13T12:26:52.792Z,20.17
2023-05-13T12:29:26.979Z,20.55
2023-05-13T12:32:07.517Z,20.85
2023-05-13T12:34:40.264Z,19.92
2023-05-13T12:37:13.925Z,19.75
2023-05-13T12:39:47.550Z,18.49
2023-05-13T12:42:20.275Z,19.20
2023-05-13T12:44:57.086Z,19.10
2023-05-13T12:47:29.984Z,19.02
2023-05-13T12:50:06.214Z,19.22
2023-05-13T12:52:39.061Z,19.00
2023-05-13T12:55:13.111Z,19.62
2023-05-13T12:57:55.760Z,19.95
2023-05-13T13:00:30.531Z,19.85
2023-05-13T13:03:03.321Z,19.79
2023-05-13T13:05:36.474Z,19.57
2023-05-13T13:08:09.190Z,19.15
2023-05-13T13:10:42.345Z,19.15
2023-05-13T13:13:15.093Z,18.82
2023-05-13T13:15:49.239Z,18.76
2023-05-13T13:18:22.254Z,18.54
2023-05-13T13:20:56.035Z,19.60
2023-05-13T13:23:29.172Z,19.29
2023-05-13T13:26:02.147Z,18.90
2023-05-13T13:28:35.017Z,18.45
2023-05-13T13:31:09.177Z,19.20
2023-05-13T13:33:42.067Z,18.81
2023-05-13T13:36:14.903Z,18.71
2023-05-13T13:38:47.792Z,19.39
2023-05-13T13:41:21.129Z,19.20
2023-05-13T13:43:53.935Z,19.81
2023-05-13T13:46:28.618Z,19.82
2023-05-13T13:49:03.920Z,19.76
2023-05-13T13:51:43.072Z,19.44
2023-05-13T13:54:15.848Z,19.50
2023-05-13T13:56:49.204Z,18.81
2023-05-13T13:59:22.025Z,19.55
2023-05-13T14:01:56.888Z,20.46
2023-05-13T14:04:30.310Z,21.18
2023-05-13T14:07:03.250Z,20.54
2023-05-13T14:09:35.945Z,21.02
2023-05-13T14:12:09.263Z,21.61
2023-05-13T14:14:42.042Z,21.66
2023-05-13T14:17:16.551Z,21.86
2023-05-13T14:19:51.722Z,20.91
2023-05-13T14:22:25.071Z,20.37
2023-05-13T14:24:57.927Z,20.44
2023-05-13T14:27:30.680Z,21.12
2023-05-13T14:30:03.622Z,20.90
2023-05-13T14:32:37.910Z,20.92
2023-05-13T14:35:11.381Z,20.54
2023-05-13T14:37:44.111Z,21.19
2023-05-13T14:40:16.874Z,20.38
2023-05-13T14:42:50.278Z,20.10
2023-05-13T14:45:23.085Z,20.91
2023-05-13T14:47:57.332Z,20.91
2023-05-13T14:50:30.279Z,20.92
2023-05-13T14:53:03.068Z,20.70
2023-05-13T14:55:35.958Z,20.57
2023-05-13T14:58:09.715Z,21.04
2023-05-13T15:00:42.493Z,20.41
2023-05-13T15:03:16.854Z,20.27
2023-05-13T15:05:50.224Z,20.84
2023-05-13T15:08:23.117Z,20.92
2023-05-13T15:10:56.288Z,20.52
2023-05-13T15:13:32.591Z,20.56
2023-05-13T15:16:07.402Z,20.09
2023-05-13T15:18:41.680Z,20.15
2023-05-13T15:21:14.609Z,20.27
2023-05-13T15:23:47.415Z,20.48
2023-05-13T15:26:20.803Z,20.05
2023-05-13T15:28:53.533Z,20.06
2023-05-13T15:31:26.454Z,20.36
2023-05-13T15:34:02.371Z,19.58
2023-05-13T15:36:35.710Z,20.15
2023-05-13T15:39:08.601Z,20.25
2023-05-13T15:41:41.855Z,20.36
2023-05-13T15:44:14.609Z,19.46
2023-05-13T15:46:49.648Z,20.25
2023-05-13T15:49:23.957Z,19.75
2023-05-13T15:51:57.760Z,19.17
2023-05-13T15:54:30.888Z,19.39
2023-05-13T15:57:03.814Z,20.08
2023-05-13T15:59:36.902Z,19.93
2023-05-13T16:02:09.697Z,19.62
2023-05-13T16:04:44.037Z,19.83
2023-05-13T16:07:16.844Z,19.87
2023-05-13T16:09:49.547Z,19.12
2023-05-13T16:12:22.324Z,19.49
2023-05-13T16:14:55.263Z,19.47
2023-05-13T16:17:28.070Z,19.73
2023-05-13T16:20:02.459Z,20.05
2023-05-13T16:22:38.327Z,19.26
2023-05-13T16:25:12.622Z,19.27
2023-05-13T16:27:45.691Z,19.01
2023-05-13T16:30:18.591Z,18.70
2023-05-13T16:32:53.432Z,19.31
2023-05-13T16:35:27.633Z,19.03
2023-05-13T16:38:00.620Z,19.26
2023-05-13T16:40:33.523Z,19.44
2023-05-13T16:43:06.595Z,19.50
2023-05-13T16:45:39.700Z,19.58
2023-05-13T16:48:13.540Z,19.61
2023-05-13T16:50:48.000Z,19.43
2023-05-13T16:53:22.487Z,19.28
2023-05-13T16:55:55.505Z,19.11
2023-05-13T16:58:28.451Z,19.08
2023-05-13T17:01:01.494Z,18.36
2023-05-13T17:03:34.373Z,18.66
2023-05-13T17:06:09.361Z,18.58
2023-05-13T17:08:42.182Z,18.43
2023-05-13T17:11:17.576Z,18.64
2023-05-13T17:13:50.507Z,18.44
2023-05-13T17:16:23.359Z,18.16
2023-05-13T17:18:58.972Z,18.07
2023-05-13T17:21:33.308Z,18.28
2023-05-13T17:24:06.930Z,18.31
2023-05-13T17:26:39.993Z,18.58
2023-05-13T17:29:12.960Z,18.12
2023-05-13T17:31:45.797Z,18.20
2023-05-13T17:34:18.812Z,17.56
2023-05-13T17:36:53.031Z,17.26
2023-05-13T17:39:25.766Z,17.63
2023-05-13T17:41:58.462Z,17.71
2023-05-13T17:44:31.374Z,17.63
2023-05-13T17:47:04.419Z,17.67
2023-05-13T17:49:37.313Z,17.46
2023-05-13T17:52:11.554Z,17.37
2023-05-13T17:54:44.238Z,17.25
2023-05-13T17:57:17.099Z,17.27
2023-05-13T17:59:49.942Z,17.07
2023-05-13T18:02:22.828Z,17.31
2023-05-13T18:04:55.595Z,17.20
2023-05-13T18:07:29.880Z,17.05
2023-05-13T18:10:02.765Z,16.87
2023-05-13T18:12:35.520Z,16.91
2023-05-13T18:15:08.873Z,16.71
2023-05-13T18:17:41.847Z,16.57
2023-05-13T18:20:14.751Z,16.30
2023-05-13T18:22:49.035Z,16.59
2023-05-13T18:25:27.097Z,16.09
2023-05-13T18:28:00.383Z,16.22
2023-05-13T18:30:33.892Z,15.89
2023-05-13T18:33:07.295Z,16.23
2023-05-13T18:35:40.575Z,16.28
2023-05-13T18:38:15.153Z,16.21
2023-05-13T18:40:48.221Z,15.86
2023-05-13T18:43:21.423Z,16.01
2023-05-13T18:46:01.815Z,15.84
2023-05-13T18:48:40.791Z,15.69
2023-05-13T18:51:14.570Z,15.99
2023-05-13T18:53:52.197Z,16.03
2023-05-13T18:56:25.371Z,15.80
2023-05-13T18:58:58.731Z,15.91
2023-05-13T19:01:31.893Z,15.70
2023-05-13T19:04:05.806Z,15.47
2023-05-13T19:06:39.585Z,15.29
2023-05-13T19:09:14.683Z,15.03
2023-05-13T19:11:47.705Z,14.75
2023-05-13T19:14:20.671Z,14.98
2023-05-13T19:16:53.740Z,15.14
2023-05-13T19:19:26.721Z,15.08
2023-05-13T19:21:59.685Z,14.98
2023-05-13T19:24:34.189Z,14.89
2023-05-13T19:27:08.445Z,14.97
2023-05-13T19:29:41.322Z,14.86
2023-05-13T19:32:14.266Z,14.77
2023-05-13T19:34:47.474Z,14.84
2023-05-13T19:37:20.541Z,14.76
2023-05-13T19:39:54.781Z,14.67
2023-05-13T19:42:27.602Z,14.62
2023-05-13T19:45:00.550Z,14.13
2023-05-13T19:47:34.625Z,14.34
2023-05-13T19:50:08.558Z,14.32
2023-05-13T19:52:43.662Z,14.24
2023-05-13T19:55:18.299Z,14.25
2023-05-13T19:57:51.277Z,14.54
2023-05-13T20:00:24.642Z,14.39
2023-05-13T20:02:57.836Z,14.16
2023-05-13T20:05:30.887Z,13.93
2023-05-13T20:08:04.588Z,13.94
2023-05-13T20:10:40.462Z,13.70
2023-05-13T20:13:13.896Z,13.85
2023-05-13T20:15:46.889Z,13.52
2023-05-13T20:18:20.075Z,13.68
2023-05-13T20:20:53.823Z,13.83
2023-05-13T20:23:26.912Z,13.85
2023-05-13T20:26:01.416Z,13.57
2023-05-13T20:28:35.624Z,13.46
2023-05-13T20:31:10.369Z,13.36
2023-05-13T20:33:43.281Z,13.26
2023-05-13T20:36:16.413Z,13.27
2023-05-13T20:38:49.486Z,13.22
2023-05-13T20:41:23.901Z,13.07
2023-05-13T20:43:56.725Z,13.04
2023-05-13T20:46:29.811Z,12.97
2023-05-13T20:49:02.867Z,12.95
2023-05-13T20:51:36.317Z,12.81
2023-05-13T20:54:09.917Z,12.73
2023-05-13T20:56:44.283Z,12.62
2023-05-13T20:59:17.197Z,12.55
2023-05-13T21:01:50.327Z,12.50
2023-05-13T21:04:25.431Z,12.36
2023-05-13T21:06:58.442Z,12.27
2023-05-13T21:09:31.539Z,11.96
2023-05-13T21:12:07.043Z,11.82
2023-05-13T21:14:40.057Z,11.84
2023-05-13T21:17:13.114Z,11.80
2023-05-13T21:19:46.160Z,11.74
2023-05-13T21:22:20.646Z,11.63
2023-05-13T21:24:53.764Z,11.76
2023-05-13T21:27:28.420Z,11.72
2023-05-13T21:30:01.492Z,11.47
2023-05-13T21:32:34.578Z,11.39
2023-05-13T21:35:08.879Z,11.25
2023-05-13T21:37:43.186Z,11.18
2023-05-13T21:40:17.214Z,11.18
2023-05-13T21:42:51.490Z,11.20
2023-05-13T21:45:24.983Z,11.17
2023-05-13T21:47:57.934Z,11.11
2023-05-13T21:50:31.075Z,11.17
2023-05-13T21:53:04.912Z,11.17
2023-05-13T21:55:37.905Z,11.19
2023-05-13T21:58:12.451Z,11.12
2023-05-13T22:00:45.435Z,11.18
2023-05-13T22:03:18.298Z,10.97
2023-05-13T22:05:51.104Z,11.06
2023-05-13T22:08:23.990Z,11.02
2023-05-13T22:10:56.879Z,10.90
2023-05-13T22:13:31.058Z,10.82
2023-05-13T22:16:03.865Z,10.86
2023-05-13T22:18:37.239Z,10.75
2023-05-13T22:21:10.387Z,10.63
2023-05-13T22:23:46.811Z,10.57
2023-05-13T22:26:19.790Z,10.54
2023-05-13T22:28:54.291Z,10.48
2023-05-13T22:31:27.939Z,10.31
2023-05-13T22:34:00.811Z,10.28
2023-05-13T22:36:33.728Z,10.40
2023-05-13T22:39:06.727Z,10.37
2023-05-13T22:41:39.596Z,10.13
2023-05-13T22:44:14.222Z,10.15
2023-05-13T22:46:47.200Z,10.08
2023-05-13T22:49:20.150Z,9.90
2023-05-13T22:51:53.246Z,10.00
2023-05-13T22:54:26.038Z,9.89
2023-05-13T22:56:59.261Z,9.94
2023-05-13T22:59:33.772Z,9.83
2023-05-13T23:02:06.890Z,9.66
2023-05-13T23:04:39.865Z,9.79
2023-05-13T23:07:12.720Z,9.82
2023-05-13T23:09:45.622Z,9.68
2023-05-13T23:12:18.550Z,9.62
2023-05-13T23:14:53.005Z,9.70
2023-05-13T23:17:26.018Z,9.43
2023-05-13T23:19:58.889Z,9.48
2023-05-13T23:22:32.041Z,8.97
2023-05-13T23:25:05.418Z,9.30
2023-05-13T23:27:38.226Z,9.38
2023-05-13T23:30:14.181Z,9.29
2023-05-13T23:32:47.005Z,8.92
2023-05-13T23:35:20.151Z,9.28
2023-05-13T23:37:52.951Z,9.25
2023-05-13T23:40:25.896Z,9.10
2023-05-13T23:42:58.693Z,9.19
2023-05-13T23:45:32.892Z,9.15
2023-05-13T23:48:06.128Z,8.77
2023-05-13T23:50:39.051Z,9.06
2023-05-13T23:53:12.166Z,8.83
2023-05-13T23:55:45.285Z,8.88
2023-05-13T23:58:18.309Z,8.85
